createdAt,value
2023-01-27T02:08:41.405Z,65.10
2023-01-27T02:11:10.437Z,77.80
2023-01-27T02:13:39.782Z,65.10
2023-01-27T02:16:10.889Z,67.90
2023-01-27T02:18:42.715Z,81.10
2023-01-27T02:21:11.603Z,60.20
2023-01-27T02:23:48.823Z,62.30
2023-01-27T02:26:47.612Z,57.90
2023-01-27T02:29:16.728Z,56.70
2023-01-27T02:31:46.168Z,59.90
2023-01-27T02:34:21.095Z,56.40
2023-01-27T02:36:51.637Z,56.30
2023-01-27T02:39:22.700Z,49.40
2023-01-27T02:41:53.272Z,57.30
2023-01-27T02:44:22.129Z,57.10
2023-01-27T02:46:51.469Z,51.70
2023-01-27T02:49:20.748Z,57.80
2023-01-27T02:51:50.233Z,51.60
2023-01-27T02:54:19.431Z,53.10
2023-01-27T02:56:48.731Z,56.30
2023-01-27T02:59:20.077Z,48.60
2023-01-27T03:01:49.455Z,62.80
2023-01-27T03:04:18.296Z,49.60
2023-01-27T03:06:49.468Z,52.30
2023-01-27T03:09:18.611Z,63.90
2023-01-27T03:12:06.213Z,56.60
2023-01-27T03:14:55.402Z,46.20
2023-01-27T03:17:43.340Z,48.60
2023-01-27T03:20:12.658Z,60.00
2023-01-27T03:22:42.388Z,55.90
2023-01-27T03:25:14.473Z,54.20
2023-01-27T03:27:44.035Z,58.80
2023-01-27T03:30:29.338Z,59.40
2023-01-27T03:33:10.986Z,62.10
2023-01-27T03:36:14.394Z,54.40
2023-01-27T03:39:10.333Z,60.00
2023-01-27T03:41:58.255Z,62.00
2023-01-27T03:44:47.307Z,57.80
2023-01-27T03:47:16.306Z,64.70
2023-01-27T03:49:45.604Z,72.30
2023-01-27T03:52:14.560Z,66.70
2023-01-27T03:54:43.747Z,72.30
2023-01-27T03:57:12.557Z,78.90
2023-01-27T03:59:41.584Z,67.50
2023-01-27T04:02:29.107Z,71.30
2023-01-27T04:05:18.998Z,69.80
2023-01-27T04:07:48.588Z,61.90
2023-01-27T04:10:17.584Z,77.90
2023-01-27T04:12:51.390Z,71.10
2023-01-27T04:15:20.899Z,78.90
2023-01-27T04:17:50.399Z,81.30
2023-01-27T04:20:20.126Z,78.90
2023-01-27T04:22:49.210Z,79.40
2023-01-27T04:25:19.057Z,83.80
2023-01-27T04:27:48.109Z,88.60
2023-01-27T04:30:18.326Z,90.10
2023-01-27T04:32:51.113Z,80.10
2023-01-27T04:35:23.366Z,92.00
2023-01-27T04:37:54.357Z,102.50
2023-01-27T04:40:23.273Z,107.30
2023-01-27T04:42:54.594Z,120.00
2023-01-27T04:45:23.356Z,128.10
2023-01-27T04:47:52.421Z,126.90
2023-01-27T04:50:21.247Z,124.20
2023-01-27T04:52:50.069Z,146.80
2023-01-27T04:55:19.830Z,146.10
2023-01-27T04:57:48.621Z,133.70
2023-01-27T05:00:18.346Z,137.60
2023-01-27T05:02:49.783Z,156.70
2023-01-27T05:05:18.550Z,136.40
2023-01-27T05:07:47.805Z,131.90
2023-01-27T05:10:17.988Z,134.70
2023-01-27T05:12:47.795Z,86.40
2023-01-27T05:15:17.512Z,138.50
2023-01-27T05:17:47.127Z,120.00
2023-01-27T05:20:17.155Z,132.90
2023-01-27T05:22:46.430Z,118.90
2023-01-27T05:25:15.715Z,124.10
2023-01-27T05:27:44.983Z,116.90
2023-01-27T05:30:14.588Z,95.90
2023-01-27T05:32:44.991Z,111.10
2023-01-27T05:35:14.805Z,85.20
2023-01-27T05:37:43.963Z,107.30
2023-01-27T05:40:13.678Z,81.20
2023-01-27T05:42:46.011Z,93.10
2023-01-27T05:45:15.424Z,73.90
2023-01-27T05:47:46.190Z,68.60
2023-01-27T05:50:17.405Z,79.50
2023-01-27T05:52:46.784Z,85.60
2023-01-27T05:55:18.246Z,70.00
2023-01-27T05:57:54.989Z,68.10
2023-01-27T06:00:24.565Z,64.30
2023-01-27T06:02:55.640Z,59.90
2023-01-27T06:05:24.611Z,61.30
2023-01-27T06:07:54.402Z,55.10
2023-01-27T06:10:24.629Z,58.00
2023-01-27T06:12:53.826Z,67.30
2023-01-27T06:15:23.219Z,62.70
2023-01-27T06:17:52.880Z,59.90
2023-01-27T06:20:22.853Z,72.70
2023-01-27T06:22:51.648Z,66.30
2023-01-27T06:25:21.046Z,67.20
2023-01-27T06:27:56.355Z,70.90
2023-01-27T06:30:25.187Z,61.20
2023-01-27T06:33:01.536Z,71.00
2023-01-27T06:35:39.246Z,74.00
2023-01-27T06:38:12.513Z,75.60
2023-01-27T06:40:41.978Z,80.50
2023-01-27T06:43:14.688Z,70.90
2023-01-27T06:45:43.554Z,76.80
2023-01-27T06:48:15.950Z,63.40
2023-01-27T06:50:44.682Z,73.30
2023-01-27T06:53:17.266Z,69.40
2023-01-27T06:55:46.672Z,64.70
2023-01-27T06:58:16.469Z,72.60
2023-01-27T07:00:45.978Z,62.30
2023-01-27T07:03:18.278Z,66.10
2023-01-27T07:05:47.740Z,62.50
2023-01-27T11:16:02.236Z,103.10
2023-01-27T11:18:36.741Z,102.90
2023-01-27T11:21:07.305Z,100.20
2023-01-27T11:23:40.922Z,109.20
2023-01-27T11:26:16.294Z,106.40
2023-01-27T11:29:03.459Z,105.50
2023-01-27T11:31:56.986Z,111.00
2023-01-27T11:34:54.281Z,93.50
2023-01-27T11:37:31.624Z,86.20
2023-01-27T11:40:00.620Z,96.30
2023-01-27T11:42:35.190Z,95.40
2023-01-27T11:45:04.655Z,92.60
2023-01-27T11:47:38.997Z,94.40
2023-01-27T11:50:13.769Z,89.40
2023-01-27T11:52:43.775Z,92.70
2023-01-27T11:55:22.450Z,95.00
2023-01-27T11:57:58.118Z,91.90
2023-01-27T12:00:31.926Z,80.80
2023-01-27T12:03:28.997Z,77.90
2023-01-27T12:06:03.074Z,84.50
2023-01-27T12:08:50.711Z,72.40
2023-01-27T12:11:24.401Z,80.80
2023-01-27T12:14:02.582Z,77.60
2023-01-27T12:16:34.797Z,71.30
2023-01-27T12:19:18.074Z,73.90
2023-01-27T12:21:50.151Z,71.30
2023-01-27T12:24:27.947Z,62.00
2023-01-27T12:26:56.760Z,68.10
2023-01-27T12:29:29.661Z,79.50
2023-01-27T12:32:06.250Z,70.20
2023-01-27T12:34:36.962Z,79.80
2023-01-27T12:37:06.965Z,71.80
2023-01-27T12:57:48.889Z,62.00
2023-01-27T13:00:19.510Z,64.20
2023-01-27T13:02:48.696Z,80.80
2023-01-27T13:05:19.423Z,65.90
2023-01-27T13:07:50.869Z,63.60
2023-01-27T13:10:23.985Z,66.70
2023-01-27T13:12:56.365Z,61.20
2023-01-27T13:15:30.800Z,62.50
2023-01-27T13:18:00.085Z,56.90
2023-01-27T13:20:51.637Z,65.80
2023-01-27T13:23:23.807Z,70.80
2023-01-27T13:26:10.054Z,70.90
2023-01-27T13:28:53.436Z,58.60
2023-01-27T13:31:59.807Z,67.10
2023-01-27T13:34:49.846Z,63.70
2023-01-27T13:37:34.274Z,66.60
2023-01-27T13:40:30.846Z,63.20
2023-01-27T13:43:05.738Z,59.70
2023-01-27T13:45:46.427Z,68.20
2023-01-27T13:48:22.895Z,90.90
2023-01-27T13:51:06.874Z,64.70
2023-01-27T13:53:35.640Z,75.50
2023-01-27T13:56:19.470Z,76.60
2023-01-27T13:59:21.202Z,77.20
2023-01-27T14:02:01.893Z,73.10
2023-01-27T14:07:38.998Z,79.60
2023-01-27T14:10:49.973Z,49.20
2023-01-27T14:13:42.830Z,68.50
2023-01-27T14:16:14.785Z,81.80
2023-01-27T14:18:47.339Z,114.10
2023-01-27T14:21:39.824Z,83.50
2023-01-27T14:24:21.468Z,61.20
2023-01-27T14:26:53.051Z,62.50
2023-01-27T14:29:51.121Z,79.60
2023-01-27T14:32:35.684Z,65.40
2023-01-27T14:35:07.891Z,69.50
2023-01-27T14:37:38.071Z,81.50
2023-01-27T14:40:37.574Z,71.70
2023-01-27T14:43:26.760Z,78.50
2023-01-27T14:46:16.073Z,71.40
2023-01-27T14:49:10.613Z,64.20
2023-01-27T14:51:51.080Z,63.20
2023-01-27T14:54:52.012Z,82.80
2023-01-27T14:57:25.943Z,77.70
2023-01-27T15:00:23.999Z,61.10
2023-01-27T15:03:23.542Z,63.90
2023-01-27T15:06:02.345Z,63.90
2023-01-27T15:09:09.302Z,63.60
2023-01-27T15:11:38.291Z,66.80
2023-01-27T15:14:22.449Z,65.10
2023-01-27T15:17:12.869Z,63.60
2023-01-27T15:20:13.658Z,64.60
2023-01-27T15:23:04.358Z,76.20
2023-01-27T15:25:36.663Z,68.00
2023-01-27T15:28:05.846Z,56.00
2023-01-27T15:30:37.548Z,59.50
2023-01-27T15:33:44.794Z,61.80
2023-01-27T15:36:27.868Z,61.90
2023-01-27T15:39:10.739Z,57.60
2023-01-27T15:41:54.775Z,60.90
2023-01-27T15:44:31.563Z,78.50
2023-01-27T15:47:08.532Z,109.80
2023-01-27T15:49:42.855Z,77.40
2023-01-27T15:52:19.123Z,75.60
2023-01-27T15:54:50.279Z,69.00
2023-01-27T15:59:59.162Z,72.00
2023-01-27T16:02:29.688Z,88.10
2023-01-27T16:05:16.208Z,112.50
2023-01-27T16:07:51.262Z,120.10
2023-01-27T16:10:22.637Z,98.00
2023-01-27T16:13:13.108Z,87.90
2023-01-27T16:15:47.218Z,77.50
2023-01-27T20:18:33.913Z,62.80
2023-01-27T20:21:02.342Z,60.00
2023-01-27T20:23:30.343Z,68.10
2023-01-27T20:25:58.321Z,66.10
2023-01-27T20:28:28.009Z,62.80
2023-01-27T20:30:56.270Z,66.90
2023-01-27T20:33:25.420Z,69.00
2023-01-27T20:35:54.367Z,68.20
2023-01-27T20:38:25.687Z,78.20
2023-01-27T20:40:54.462Z,72.80
2023-01-27T20:43:34.773Z,67.90
2023-01-27T20:48:35.877Z,81.60
2023-01-27T20:51:09.017Z,68.10
2023-01-27T20:53:43.217Z,78.20
2023-01-27T20:56:21.227Z,93.00
2023-01-27T20:58:49.504Z,61.30
2023-01-27T21:01:22.162Z,78.60
2023-01-27T21:03:50.233Z,65.10
2023-01-27T21:06:19.621Z,69.40
2023-01-27T21:08:48.786Z,78.10
2023-01-27T21:11:18.363Z,70.60
2023-01-27T21:13:48.015Z,70.40
2023-01-27T21:16:15.824Z,66.10
2023-01-27T21:18:55.444Z,72.30
2023-01-27T21:21:25.117Z,64.20
2023-01-27T21:24:00.482Z,68.50
2023-01-27T21:26:28.383Z,67.50
2023-01-27T21:28:57.160Z,67.90
2023-01-27T21:31:29.853Z,69.10
2023-01-27T21:34:01.296Z,70.10
2023-01-27T21:36:30.303Z,72.80
2023-01-27T21:39:02.129Z,67.70
2023-01-27T21:41:50.837Z,66.10
2023-01-27T21:44:45.773Z,73.00
2023-01-27T21:47:19.304Z,72.50
2023-01-27T21:50:02.586Z,74.70
2023-01-27T21:52:50.608Z,70.00
2023-01-27T21:55:23.349Z,69.80
2023-01-27T21:57:51.899Z,78.50
2023-01-27T22:00:43.956Z,70.00
2023-01-27T22:03:11.269Z,66.10
2023-01-27T22:05:40.275Z,66.50
2023-01-27T22:08:27.841Z,75.80
2023-01-27T22:11:06.226Z,64.80
2023-01-27T22:13:34.790Z,82.10
2023-01-27T22:16:04.545Z,74.60
2023-01-27T22:18:32.403Z,75.30
2023-01-27T22:21:01.072Z,70.80
2023-01-27T22:23:28.603Z,70.00
2023-01-27T22:25:57.775Z,72.80
2023-01-27T22:28:26.401Z,79.10
2023-01-27T22:30:54.212Z,75.20
2023-01-27T22:33:24.076Z,76.10
2023-01-27T22:36:02.955Z,74.00
2023-01-27T22:38:30.689Z,73.50
2023-01-27T22:40:58.330Z,74.20
2023-01-27T22:43:26.835Z,67.80
2023-01-27T22:45:54.229Z,78.00
2023-01-27T22:48:22.220Z,67.70
2023-01-27T22:50:49.586Z,74.00
2023-01-27T22:53:17.159Z,86.50
2023-01-27T22:55:44.578Z,80.50
2023-01-27T22:58:14.109Z,83.50
2023-01-27T23:00:42.195Z,86.20
2023-01-27T23:03:12.589Z,76.70
2023-01-27T23:08:09.267Z,76.20
2023-01-27T23:10:38.982Z,71.80
2023-01-27T23:13:07.956Z,71.60
2023-01-27T23:15:45.963Z,84.10
2023-01-27T23:18:13.306Z,71.70
2023-01-27T23:20:41.789Z,62.90
2023-01-27T23:23:10.360Z,65.30
2023-01-27T23:25:44.691Z,69.30
2023-01-27T23:28:13.045Z,66.10
2023-01-27T23:31:05.026Z,62.00
2023-01-27T23:33:40.659Z,64.30
2023-01-27T23:36:08.835Z,62.20
2023-01-27T23:38:36.478Z,73.30
2023-01-27T23:41:08.132Z,72.50
2023-01-27T23:43:35.591Z,66.90
2023-01-27T23:46:03.082Z,65.00
2023-01-27T23:48:32.516Z,67.90
2023-01-27T23:51:06.331Z,63.90
2023-01-27T23:53:33.747Z,68.80
2023-01-27T23:56:01.279Z,62.00
2023-01-27T23:58:28.964Z,57.00
